Stewart International Airport Newburgh US
ICAO: KSWF
IATA: SWF
Category: Medium
Scheduled Services: Yes

Elevation: 491 ft
TransAlt. 18000 ft.

Airport Communications:
105 AW COMD POST:37.94
ATIS:124.575
NEW YORK CNTR:132.75
GND:121.9
AR OPS:38.5
ARMY OPS:49.75
TWR:121
UNICOM:122.95

KSWF Zoom In..

If you have problems with the map follow the link
https://www.worldairports.se/pages/airport.php?
ICAO=KSWF

Runways:

(A) RW 09 length 11817 ft width 150 ft
ILS 110.10 / hdg 92

(B) RW 16 length 6004 ft width 150 ft
---- / hdg 163

(C) RW 27 length 11817 ft width 150 ft
ILS 109.95 / hdg 272

(D) RW 34 length 6004 ft width 150 ft
---- / hdg 343

Location; KSWF
Day. 16 / Time. 00.45 Zulu
* Altimeter: 30.04
* Temperature: 01° c. 33.8°f.
* Wind from: 300° Speed 12 kn with Gusts up to 16 kn.
Dewpoint: -05° c.
Visibility: 10 Statute Miles.
Clouds: Scattered 5000 ft.

KSWF 160045Z 30012G16KT 10SM SCT050 01/M05 A3004 RMK PRESRR


Wind From 300°
Speed 12 kn.

 
 
jpsmedia worldairports.se 2019   terms of use